createdAt,value
2018-04-17T00:00:11.883Z,14.10
2018-04-17T00:02:44.226Z,14.00
2018-04-17T00:05:16.315Z,14.00
2018-04-17T00:07:48.456Z,14.00
2018-04-17T00:10:19.879Z,13.90
2018-04-17T00:12:51.262Z,13.90
2018-04-17T00:15:22.344Z,13.90
2018-04-17T00:17:53.714Z,13.90
2018-04-17T00:20:25.438Z,13.80
2018-04-17T00:22:56.643Z,13.80
2018-04-17T00:25:28.056Z,13.70
2018-04-17T00:27:59.418Z,13.70
2018-04-17T00:30:30.799Z,13.70
2018-04-17T00:33:02.197Z,13.70
2018-04-17T00:35:33.527Z,13.70
2018-04-17T00:38:05.646Z,13.60
2018-04-17T00:40:36.974Z,13.60
2018-04-17T00:43:08.340Z,13.60
2018-04-17T00:45:39.758Z,13.60
2018-04-17T00:48:11.160Z,13.50
2018-04-17T00:50:42.555Z,13.50
2018-04-17T00:53:31.466Z,13.50
2018-04-17T00:56:02.847Z,13.40
2018-04-17T00:58:35.013Z,13.40
2018-04-17T01:01:07.320Z,13.30
2018-04-17T01:03:39.497Z,13.30
2018-04-17T01:06:11.900Z,13.30
2018-04-17T01:08:44.105Z,13.30
2018-04-17T01:11:16.365Z,13.20
2018-04-17T01:13:48.478Z,13.20
2018-04-17T01:16:19.902Z,13.20
2018-04-17T01:18:51.530Z,13.20
2018-04-17T01:21:22.919Z,13.10
2018-04-17T01:23:54.254Z,13.10
2018-04-17T01:26:27.061Z,13.10
2018-04-17T01:28:59.234Z,13.00
2018-04-17T01:31:31.573Z,13.00
2018-04-17T01:34:03.731Z,13.00
2018-04-17T01:36:35.840Z,12.90
2018-04-17T01:39:06.554Z,12.90
2018-04-17T01:41:38.773Z,12.90
2018-04-17T01:44:10.046Z,12.90
2018-04-17T01:46:42.282Z,12.90
2018-04-17T01:49:14.695Z,12.80
2018-04-17T01:51:46.839Z,12.80
2018-04-17T01:54:18.192Z,12.80
2018-04-17T01:56:49.233Z,12.80
2018-04-17T01:59:21.362Z,12.80
2018-04-17T02:01:52.734Z,12.70
2018-04-17T02:04:24.058Z,12.70
2018-04-17T02:06:55.704Z,12.70
2018-04-17T02:09:27.817Z,12.60
2018-04-17T02:11:59.197Z,12.60
2018-04-17T02:14:30.542Z,12.60
2018-04-17T02:17:01.891Z,12.60
2018-04-17T02:19:33.224Z,12.60
2018-04-17T02:22:04.587Z,12.60
2018-04-17T02:24:35.917Z,12.50
2018-04-17T02:29:46.016Z,12.50
2018-04-17T02:32:17.882Z,12.50
2018-04-17T02:34:50.017Z,12.40
2018-04-17T02:37:21.337Z,12.40
2018-04-17T02:39:52.710Z,12.40
2018-04-17T02:42:24.063Z,12.40
2018-04-17T02:44:55.552Z,12.40
2018-04-17T02:47:28.047Z,12.40
2018-04-17T02:50:00.407Z,12.30
2018-04-17T02:52:31.950Z,12.30
2018-04-17T02:55:03.530Z,12.30
2018-04-17T02:57:35.671Z,12.30
2018-04-17T03:00:07.109Z,12.20
2018-04-17T03:02:38.429Z,12.30
2018-04-17T03:05:09.797Z,12.30
2018-04-17T03:07:41.942Z,12.20
2018-04-17T03:10:13.143Z,12.20
2018-04-17T03:12:44.559Z,12.20
2018-04-17T03:15:15.958Z,12.20
2018-04-17T03:17:47.286Z,12.20
2018-04-17T03:20:18.485Z,12.20
2018-04-17T03:22:49.689Z,12.20
2018-04-17T03:25:21.137Z,12.10
2018-04-17T03:27:53.429Z,12.10
2018-04-17T03:30:25.123Z,12.10
2018-04-17T03:32:57.226Z,12.00
2018-04-17T03:35:29.163Z,12.00
2018-04-17T03:38:00.527Z,12.00
2018-04-17T03:40:32.694Z,12.00
2018-04-17T03:43:04.101Z,12.00
2018-04-17T03:45:36.181Z,11.90
2018-04-17T03:48:07.709Z,11.90
2018-04-17T03:50:39.791Z,11.90
2018-04-17T03:53:11.140Z,11.90
2018-04-17T03:55:44.165Z,11.90
2018-04-17T03:58:15.605Z,11.80
2018-04-17T04:00:47.194Z,11.80
2018-04-17T04:03:20.159Z,11.70
2018-04-17T04:08:28.702Z,11.60
2018-04-17T04:11:00.070Z,11.70
2018-04-17T04:13:31.417Z,11.60
2018-04-17T04:16:02.759Z,11.60
2018-04-17T04:18:51.706Z,11.50
2018-04-17T04:21:39.921Z,11.50
2018-04-17T04:27:39.477Z,11.40
2018-04-17T04:30:10.658Z,11.40
2018-04-17T04:32:42.018Z,11.30
2018-04-17T04:35:14.113Z,11.30
2018-04-17T04:37:45.558Z,11.30
2018-04-17T04:40:16.885Z,11.30
2018-04-17T04:42:49.038Z,11.30
2018-04-17T04:45:20.571Z,11.30
2018-04-17T04:47:51.923Z,11.40
2018-04-17T04:50:23.281Z,11.40
2018-04-17T04:52:54.670Z,11.40
2018-04-17T04:55:26.777Z,11.40
2018-04-17T04:57:58.266Z,11.40
2018-04-17T05:00:29.592Z,11.40
2018-04-17T05:03:01.764Z,11.40
2018-04-17T05:05:33.173Z,11.40
2018-04-17T05:08:05.353Z,11.50
2018-04-17T05:10:36.756Z,11.50
2018-04-17T05:13:08.397Z,11.50
2018-04-17T05:15:39.802Z,11.50
2018-04-17T05:18:11.306Z,11.50
2018-04-17T05:20:42.804Z,11.60
2018-04-17T05:23:14.261Z,11.60
2018-04-17T05:25:45.429Z,11.60
2018-04-17T05:28:17.809Z,11.60
2018-04-17T05:30:49.178Z,11.60
2018-04-17T05:33:20.746Z,11.60
2018-04-17T05:35:52.880Z,11.70
2018-04-17T05:38:24.350Z,11.60
2018-04-17T05:40:55.909Z,11.70
2018-04-17T05:43:27.701Z,11.70
2018-04-17T05:45:59.054Z,11.80
2018-04-17T05:48:31.221Z,11.80
2018-04-17T05:51:03.337Z,11.90
2018-04-17T05:53:34.810Z,11.80
2018-04-17T05:56:06.674Z,11.90
2018-04-17T05:58:37.866Z,11.90
2018-04-17T06:01:09.056Z,12.00
2018-04-17T06:03:40.453Z,12.10
2018-04-17T06:06:11.794Z,12.10
2018-04-17T06:08:44.100Z,12.30
2018-04-17T06:11:16.405Z,12.30
2018-04-17T06:13:48.695Z,12.30
2018-04-17T06:16:20.005Z,12.40
2018-04-17T06:18:51.373Z,12.50
2018-04-17T06:21:23.701Z,12.60
2018-04-17T06:23:55.152Z,12.60
2018-04-17T06:26:27.274Z,12.80
2018-04-17T06:31:36.509Z,12.90
2018-04-17T06:34:07.916Z,12.80
2018-04-17T06:36:39.449Z,13.00
2018-04-17T06:39:10.849Z,13.10
2018-04-17T06:41:42.203Z,13.10
2018-04-17T06:44:13.771Z,13.20
2018-04-17T06:46:45.234Z,13.30
2018-04-17T06:49:18.149Z,13.40
2018-04-17T06:51:50.298Z,13.60
2018-04-17T06:54:22.147Z,13.60
2018-04-17T06:56:53.602Z,13.70
2018-04-17T06:59:25.258Z,13.90
2018-04-17T07:01:58.173Z,14.00
2018-04-17T07:04:30.294Z,14.10
2018-04-17T07:07:01.951Z,14.20
2018-04-17T07:09:33.348Z,14.30
2018-04-17T07:12:04.989Z,14.40
2018-04-17T07:14:36.357Z,14.50
2018-04-17T07:17:08.511Z,14.80
2018-04-17T07:19:39.953Z,14.80
2018-04-17T07:22:12.153Z,15.10
2018-04-17T07:24:44.157Z,15.00
2018-04-17T07:27:16.406Z,15.20
2018-04-17T07:29:48.585Z,15.40
2018-04-17T07:32:19.973Z,15.40
2018-04-17T07:34:51.389Z,15.60
2018-04-17T07:37:22.781Z,15.70
2018-04-17T07:39:54.168Z,15.90
2018-04-17T07:42:25.629Z,16.00
2018-04-17T07:44:57.042Z,16.10
2018-04-17T07:47:30.538Z,16.30
2018-04-17T07:50:02.187Z,16.30
2018-04-17T07:52:33.593Z,16.40
2018-04-17T07:55:04.932Z,16.60
2018-04-17T07:57:36.335Z,16.70
2018-04-17T08:00:07.746Z,16.80
2018-04-17T08:02:39.109Z,16.90
2018-04-17T08:05:10.522Z,17.00
2018-04-17T08:07:41.965Z,17.10
2018-04-17T08:10:13.550Z,17.30
2018-04-17T08:12:45.052Z,17.40
2018-04-17T08:15:16.462Z,17.50
2018-04-17T08:17:47.868Z,17.60
2018-04-17T08:20:19.230Z,17.70
2018-04-17T08:22:50.647Z,17.80
2018-04-17T08:25:21.986Z,17.90
2018-04-17T08:27:53.377Z,18.10
2018-04-17T08:30:24.987Z,18.20
2018-04-17T08:32:56.352Z,18.30
2018-04-17T08:35:28.049Z,18.30
2018-04-17T08:38:00.454Z,18.50
2018-04-17T08:40:31.811Z,18.50
2018-04-17T08:43:03.307Z,18.60
2018-04-17T08:45:34.606Z,18.70
2018-04-17T08:48:05.972Z,18.80
2018-04-17T08:50:37.421Z,18.90
2018-04-17T08:53:08.953Z,19.00
2018-04-17T08:55:41.369Z,19.20
2018-04-17T08:58:14.257Z,19.30
2018-04-17T09:00:45.799Z,19.30
2018-04-17T09:03:16.983Z,19.40
2018-04-17T09:05:48.302Z,19.50
2018-04-17T09:08:19.760Z,19.60
2018-04-17T09:10:52.733Z,19.80
2018-04-17T09:13:24.122Z,19.80
2018-04-17T09:15:56.327Z,20.00
2018-04-17T09:18:27.957Z,20.00
2018-04-17T09:21:00.584Z,20.20
2018-04-17T09:23:31.746Z,20.20
2018-04-17T09:26:03.488Z,20.30
2018-04-17T09:28:34.853Z,20.50
2018-04-17T09:31:06.317Z,20.60
2018-04-17T09:33:37.770Z,20.70
2018-04-17T09:36:09.486Z,20.90
2018-04-17T09:38:41.084Z,21.10
2018-04-17T09:41:12.526Z,21.20
2018-04-17T09:43:43.966Z,21.30
2018-04-17T09:46:15.336Z,21.50
2018-04-17T09:48:46.734Z,21.70
2018-04-17T09:51:18.160Z,21.90
2018-04-17T09:53:50.609Z,22.20
2018-04-17T09:56:21.959Z,22.20
2018-04-17T09:58:53.625Z,22.40
2018-04-17T10:01:25.045Z,22.70
2018-04-17T10:03:56.466Z,23.00
2018-04-17T10:06:28.547Z,23.70
2018-04-17T10:09:00.232Z,23.60
2018-04-17T10:11:32.167Z,24.00
2018-04-17T10:14:03.542Z,24.30
2018-04-17T10:16:34.903Z,24.50
2018-04-17T10:19:06.373Z,24.70
2018-04-17T10:21:38.492Z,25.10
2018-04-17T10:24:10.654Z,25.30
2018-04-17T10:26:42.076Z,25.20
2018-04-17T10:29:14.315Z,25.80
2018-04-17T10:31:47.514Z,25.70
2018-04-17T10:34:19.683Z,26.10
2018-04-17T10:36:51.158Z,26.40
2018-04-17T10:39:22.534Z,26.70
2018-04-17T10:41:54.255Z,27.10
2018-04-17T10:44:26.730Z,27.60
2018-04-17T10:46:58.138Z,27.60
2018-04-17T10:49:29.524Z,27.80
2018-04-17T10:52:00.604Z,28.10
2018-04-17T10:54:33.206Z,28.70
2018-04-17T10:57:05.643Z,29.10
2018-04-17T10:59:37.319Z,29.00
2018-04-17T11:02:09.428Z,29.90
2018-04-17T11:04:41.616Z,30.10
2018-04-17T11:07:13.087Z,30.10
2018-04-17T11:09:44.764Z,30.40
2018-04-17T11:12:16.150Z,30.60
2018-04-17T11:14:47.597Z,30.70
2018-04-17T11:17:19.042Z,30.90
2018-04-17T11:19:50.638Z,31.10
2018-04-17T11:22:22.573Z,31.30
2018-04-17T11:24:54.540Z,31.60
2018-04-17T11:27:26.413Z,31.90
2018-04-17T11:29:58.117Z,32.20
2018-04-17T11:32:30.595Z,32.40
2018-04-17T11:35:03.382Z,32.70
2018-04-17T11:37:35.349Z,33.00
2018-04-17T11:40:07.579Z,33.20
2018-04-17T11:42:40.341Z,33.40
2018-04-17T11:45:12.543Z,33.40
2018-04-17T11:47:44.756Z,33.60
2018-04-17T11:50:17.049Z,33.70
2018-04-17T11:52:50.581Z,33.90
2018-04-17T11:55:22.549Z,33.90
2018-04-17T11:57:54.790Z,34.10
2018-04-17T12:00:26.726Z,34.20
2018-04-17T12:02:59.695Z,34.40
2018-04-17T12:05:32.471Z,34.40
2018-04-17T12:08:04.390Z,34.40
2018-04-17T12:10:36.899Z,34.80
2018-04-17T12:13:08.717Z,34.70
2018-04-17T12:15:40.756Z,35.00
2018-04-17T12:18:12.929Z,35.10
2018-04-17T12:20:44.912Z,35.30
2018-04-17T12:23:16.933Z,35.40
2018-04-17T12:25:49.806Z,35.60
2018-04-17T12:28:21.954Z,35.60
2018-04-17T12:30:53.878Z,35.70
2018-04-17T12:33:26.714Z,35.60
2018-04-17T12:35:58.709Z,35.60
2018-04-17T12:38:30.673Z,35.60
2018-04-17T12:41:02.900Z,35.60
2018-04-17T12:43:35.001Z,35.70
2018-04-17T12:46:07.069Z,35.60
2018-04-17T12:48:39.104Z,35.70
2018-04-17T12:51:11.336Z,35.90
2018-04-17T12:53:43.686Z,36.00
2018-04-17T12:56:16.471Z,36.10
2018-04-17T12:58:48.446Z,36.00
2018-04-17T13:01:20.378Z,36.10
2018-04-17T13:03:52.352Z,36.10
2018-04-17T13:06:24.367Z,36.10
2018-04-17T13:08:57.178Z,36.00
2018-04-17T13:11:29.386Z,36.10
2018-04-17T13:14:02.153Z,36.10
2018-04-17T13:16:34.114Z,36.10
2018-04-17T13:19:06.060Z,36.10
2018-04-17T13:21:38.082Z,36.00
2018-04-17T13:24:10.621Z,35.40
2018-04-17T13:26:42.768Z,35.40
2018-04-17T13:29:14.751Z,35.10
2018-04-17T13:34:24.975Z,34.50
2018-04-17T13:36:57.110Z,34.20
2018-04-17T13:39:28.513Z,33.80
2018-04-17T13:42:00.011Z,33.50
2018-04-17T13:44:32.109Z,32.60
2018-04-17T13:47:03.546Z,32.60
2018-04-17T13:49:34.885Z,32.30
2018-04-17T13:52:06.133Z,31.90
2018-04-17T13:54:37.767Z,31.60
2018-04-17T13:57:09.411Z,31.20
2018-04-17T13:59:41.635Z,30.60
2018-04-17T14:02:13.230Z,30.50
2018-04-17T14:04:46.766Z,30.00
2018-04-17T14:07:18.567Z,30.00
2018-04-17T14:09:50.220Z,29.90
2018-04-17T14:12:22.490Z,29.50
2018-04-17T14:14:53.947Z,29.40
2018-04-17T14:17:25.481Z,29.30
2018-04-17T14:19:57.790Z,29.10
2018-04-17T14:22:29.135Z,28.70
2018-04-17T14:25:00.681Z,28.90
2018-04-17T14:27:33.148Z,28.80
2018-04-17T14:30:04.367Z,28.70
2018-04-17T14:32:35.758Z,28.70
2018-04-17T14:35:07.217Z,28.60
2018-04-17T14:37:39.809Z,28.50
2018-04-17T14:40:12.698Z,28.50
2018-04-17T14:42:44.322Z,28.50
2018-04-17T14:45:15.793Z,28.50
2018-04-17T14:47:48.296Z,28.50
2018-04-17T14:50:19.712Z,28.50
2018-04-17T14:52:51.105Z,28.50
2018-04-17T14:55:22.513Z,28.50
2018-04-17T14:57:53.597Z,28.50
2018-04-17T15:00:25.770Z,28.40
2018-04-17T15:02:57.413Z,28.30
2018-04-17T15:05:29.582Z,28.20
2018-04-17T15:08:01.812Z,28.10
2018-04-17T15:10:33.378Z,28.00
2018-04-17T15:13:04.795Z,27.90
2018-04-17T15:15:36.666Z,27.80
2018-04-17T15:18:08.217Z,27.70
2018-04-17T15:20:39.624Z,27.60
2018-04-17T15:23:11.061Z,27.10
2018-04-17T15:25:42.834Z,27.40
2018-04-17T15:28:15.113Z,27.20
2018-04-17T15:30:47.370Z,27.20
2018-04-17T15:33:18.756Z,27.20
2018-04-17T15:35:50.134Z,27.10
2018-04-17T15:38:21.653Z,27.10
2018-04-17T15:40:53.380Z,27.00
2018-04-17T15:43:25.033Z,26.90
2018-04-17T15:45:56.567Z,26.90
2018-04-17T15:48:27.939Z,26.80
2018-04-17T15:50:59.347Z,26.70
2018-04-17T15:53:30.706Z,26.70
2018-04-17T15:56:02.131Z,26.60
2018-04-17T15:58:33.526Z,26.60
2018-04-17T16:01:05.254Z,26.50
2018-04-17T16:03:36.619Z,26.40
2018-04-17T16:06:08.957Z,26.40
2018-04-17T16:08:40.770Z,26.40
2018-04-17T16:11:12.323Z,26.40
2018-04-17T16:13:44.806Z,26.40
2018-04-17T16:16:16.065Z,26.40
2018-04-17T16:18:48.259Z,26.30
2018-04-17T16:21:20.930Z,26.30
2018-04-17T16:23:52.545Z,26.30
2018-04-17T16:26:24.053Z,26.30
2018-04-17T16:28:55.738Z,26.20
2018-04-17T16:31:27.135Z,26.20
2018-04-17T16:33:58.559Z,26.20
2018-04-17T16:36:30.084Z,26.10
2018-04-17T16:39:03.241Z,26.00
2018-04-17T16:41:35.178Z,26.00
2018-04-17T16:44:06.363Z,26.00
2018-04-17T16:46:38.579Z,25.90
2018-04-17T16:49:10.102Z,25.80
2018-04-17T16:51:41.466Z,25.90
2018-04-17T16:54:13.678Z,25.80
2018-04-17T16:56:45.094Z,25.80
2018-04-17T16:59:16.519Z,25.80
2018-04-17T17:01:47.743Z,25.80
2018-04-17T17:04:21.146Z,25.80
2018-04-17T17:06:53.272Z,25.80
2018-04-17T17:09:24.725Z,25.80
2018-04-17T17:11:56.226Z,25.80
2018-04-17T17:14:29.246Z,25.70
2018-04-17T17:17:00.577Z,25.80
2018-04-17T17:19:32.903Z,25.70
2018-04-17T17:22:04.618Z,25.70
2018-04-17T17:24:35.968Z,25.60
2018-04-17T17:27:07.222Z,25.70
2018-04-17T17:29:38.983Z,25.60
2018-04-17T17:32:10.017Z,25.60
2018-04-17T17:34:41.366Z,25.50
2018-04-17T17:37:12.960Z,25.50
2018-04-17T17:39:44.321Z,25.40
2018-04-17T17:42:17.337Z,25.30
2018-04-17T17:44:48.719Z,25.30
2018-04-17T17:47:20.105Z,25.30
2018-04-17T17:49:51.627Z,25.20
2018-04-17T17:52:22.982Z,25.10
2018-04-17T17:54:54.529Z,25.10
2018-04-17T17:57:26.060Z,25.00
2018-04-17T17:59:57.927Z,25.00
2018-04-17T18:02:29.387Z,24.90
2018-04-17T18:05:00.771Z,24.80
2018-04-17T18:07:33.190Z,24.70
2018-04-17T18:10:05.401Z,24.60
2018-04-17T18:12:36.765Z,24.60
2018-04-17T18:15:08.186Z,24.50
2018-04-17T18:17:39.642Z,24.50
2018-04-17T18:20:11.015Z,24.40
2018-04-17T18:22:42.445Z,24.30
2018-04-17T18:25:13.856Z,24.30
2018-04-17T18:27:45.266Z,24.20
2018-04-17T18:30:16.744Z,24.10
2018-04-17T18:32:48.885Z,23.90
2018-04-17T18:35:20.430Z,23.90
2018-04-17T18:37:52.198Z,23.90
2018-04-17T18:40:24.534Z,23.70
2018-04-17T18:42:56.004Z,23.70
2018-04-17T18:45:27.449Z,23.60
2018-04-17T18:47:59.947Z,23.40
2018-04-17T18:50:31.294Z,23.30
2018-04-17T18:53:02.718Z,23.30
2018-04-17T18:55:34.344Z,23.20
2018-04-17T18:58:05.819Z,23.10
2018-04-17T19:00:37.327Z,23.00
2018-04-17T19:03:08.689Z,22.90
2018-04-17T19:05:40.111Z,22.90
2018-04-17T19:08:11.491Z,22.70
2018-04-17T19:10:44.422Z,22.60
2018-04-17T19:13:16.609Z,22.60
2018-04-17T19:15:48.011Z,22.50
2018-04-17T19:18:19.449Z,22.50
2018-04-17T19:20:50.839Z,22.40
2018-04-17T19:23:23.007Z,22.30
2018-04-17T19:25:55.230Z,22.20
2018-04-17T19:28:26.598Z,22.20
2018-04-17T19:30:58.181Z,22.10
2018-04-17T19:33:29.444Z,22.10
2018-04-17T19:36:01.535Z,21.90
2018-04-17T19:38:32.961Z,21.90
2018-04-17T19:41:06.895Z,21.80
2018-04-17T19:43:38.275Z,21.70
2018-04-17T19:46:09.758Z,21.70
2018-04-17T19:48:41.961Z,21.50
2018-04-17T19:51:13.446Z,21.50
2018-04-17T19:53:45.619Z,21.40
2018-04-17T19:56:17.031Z,21.30
2018-04-17T19:58:48.437Z,21.30
2018-04-17T20:01:20.321Z,21.20
2018-04-17T20:03:52.137Z,21.10
2018-04-17T20:06:23.199Z,21.10
2018-04-17T20:08:54.537Z,20.60
2018-04-17T20:11:26.144Z,20.90
2018-04-17T20:13:57.593Z,20.90
2018-04-17T20:16:29.737Z,20.70
2018-04-17T20:19:01.285Z,20.70
2018-04-17T20:21:33.446Z,20.60
2018-04-17T20:24:04.962Z,20.60
2018-04-17T20:26:36.353Z,20.50
2018-04-17T20:29:07.690Z,20.50
2018-04-17T20:31:39.142Z,20.40
2018-04-17T20:34:11.030Z,20.30
2018-04-17T20:36:43.174Z,20.20
2018-04-17T20:39:14.330Z,20.20
2018-04-17T20:41:46.296Z,20.10
2018-04-17T20:44:17.423Z,20.10
2018-04-17T20:46:48.591Z,20.10
2018-04-17T20:49:19.717Z,20.00
2018-04-17T20:51:50.884Z,19.90
2018-04-17T20:54:22.048Z,19.90
2018-04-17T20:56:53.267Z,19.80
2018-04-17T20:59:25.518Z,19.70
2018-04-17T21:01:56.913Z,19.70
2018-04-17T21:04:28.379Z,19.60
2018-04-17T21:06:59.837Z,19.60
2018-04-17T21:09:31.404Z,19.60
2018-04-17T21:12:02.952Z,19.50
2018-04-17T21:14:34.613Z,19.50
2018-04-17T21:17:05.943Z,19.40
2018-04-17T21:19:37.469Z,19.40
2018-04-17T21:22:09.199Z,19.30
2018-04-17T21:24:40.517Z,19.30
2018-04-17T21:27:11.959Z,19.30
2018-04-17T21:29:44.288Z,19.20
2018-04-17T21:32:17.473Z,19.10
2018-04-17T21:34:48.907Z,19.10
2018-04-17T21:37:20.370Z,19.10
2018-04-17T21:39:51.776Z,19.10
2018-04-17T21:42:23.425Z,19.00
2018-04-17T21:44:54.901Z,19.00
2018-04-17T21:47:27.056Z,18.90
2018-04-17T21:49:58.426Z,18.80
2018-04-17T21:52:29.851Z,18.80
2018-04-17T21:55:02.005Z,18.70
2018-04-17T21:57:34.508Z,18.60
2018-04-17T22:00:04.858Z,18.50
2018-04-17T22:02:36.384Z,18.50
2018-04-17T22:05:07.742Z,18.50
2018-04-17T22:07:39.136Z,18.50
2018-04-17T22:10:11.297Z,18.40
2018-04-17T22:12:42.691Z,18.30
2018-04-17T22:15:14.457Z,18.30
2018-04-17T22:17:45.802Z,18.30
2018-04-17T22:20:17.057Z,18.30
2018-04-17T22:22:48.215Z,18.20
2018-04-17T22:25:19.616Z,18.20
2018-04-17T22:27:50.890Z,18.10
2018-04-17T22:30:22.322Z,18.10
2018-04-17T22:32:54.489Z,18.00
2018-04-17T22:35:26.710Z,17.90
2018-04-17T22:37:58.101Z,17.90
2018-04-17T22:40:30.049Z,17.90
2018-04-17T22:43:01.200Z,17.80
2018-04-17T22:45:32.225Z,17.90
2018-04-17T22:48:03.399Z,17.90
2018-04-17T22:50:34.433Z,17.80
2018-04-17T22:53:05.594Z,17.70
2018-04-17T22:55:37.679Z,17.70
2018-04-17T22:58:08.842Z,17.60
2018-04-17T23:00:40.316Z,17.60
2018-04-17T23:03:11.738Z,17.60
2018-04-17T23:05:43.105Z,17.50
2018-04-17T23:08:15.305Z,17.30
2018-04-17T23:10:47.021Z,17.30
2018-04-17T23:13:18.409Z,17.30
2018-04-17T23:15:49.833Z,17.20
2018-04-17T23:18:21.542Z,17.20
2018-04-17T23:20:53.732Z,17.10
2018-04-17T23:23:25.865Z,17.00
2018-04-17T23:25:58.027Z,17.00
2018-04-17T23:28:29.376Z,16.90
2018-04-17T23:31:00.952Z,16.90
2018-04-17T23:33:32.340Z,16.90
2018-04-17T23:36:03.380Z,16.90
2018-04-17T23:38:34.862Z,16.80
2018-04-17T23:41:06.203Z,16.80
2018-04-17T23:43:37.608Z,16.80
2018-04-17T23:46:09.077Z,16.70
2018-04-17T23:48:40.549Z,16.70
2018-04-17T23:51:11.930Z,16.60
2018-04-17T23:53:43.342Z,16.60
2018-04-17T23:56:14.731Z,16.50
2018-04-17T23:58:46.103Z,16.50
